Iba, Philippines

8:31 AM PHT on August 28, 2014 (GMT +0800)
Subic Bay International | Change Station
CLOSE
Current Station
Airport
Location: Subic Bay,
Elevation: 62 ft
Nearby Weather Stations

Elev 62 ft 14.79 °N, 120.27 °E | Updated 31 minutes ago

Mostly Cloudy
Mostly Cloudy
79 °F
Feels Like 79 °F
N
1
Wind Variable Wind from Variable

Today
High -- | Low -- °F
--% Chance of Precip.
Yesterday
High -- | Low -- °F
Precip. -- in
5:47 AM 6:15 PM
Waxing Crescent, 5% visible
Pressure 29.86 in
Visibility 6.2 miles
Clouds Few 2000 ft
Scattered Clouds 8000 ft
Mostly Cloudy 30000 ft
Dew Point 73 °F
Humidity 83%
Rainfall 0.00 in
Snow Depth Not available.
UV 0 out of 12
Pollen Not available.
Air Quality Not available.
Flu Activity Not available.
METAR RPLB 280000Z VRB01KT 9999 FEW020 SCT080 BKN300 26/23 Q1011 NOSIG

More Conditions Fewer Conditions

Pressure 29.86 in
Visibility 6.2 miles
Clouds Few 2000 ft
Scattered Clouds 8000 ft
Mostly Cloudy 30000 ft
Dew Point 73 °F
Humidity 83%
Rainfall 0.00 in
Snow Depth Not available.
UV 0 out of 12
Pollen Not available.
Air Quality Not available.
Flu Activity Not available.
METAR RPLB 280000Z VRB01KT 9999 FEW020 SCT080 BKN300 26/23 Q1011 NOSIG

More Conditions Fewer Conditions

10-Day Weather Forecast

Almanac

Astronomy

Aug. 28, 2014 Rise Set
Actual Time 5:47 AM PHT 6:15 PM PHT
Civil Twilight 5:25 AM PHT 6:37 PM PHT
Nautical Twilight 4:59 AM PHT 7:02 PM PHT
Astronomical Twilight 4:34 AM PHT 7:28 PM PHT
Moon 7:38 AM PHT 7:53 PM PHT
Length of Visible Light 13h 12m
Length of Day
12h 28m
Tomorrow will be 0m 49s shorter.
Waxing Crescent, 5% of the Moon is Illuminated
Aug 27
Waxing Crescent
Sep 2
First Quarter
Sep 8
Full
Sep 15
Last Quarter
Sep 24
New

Yesterday's Extremes

Country Highs Country Lows

Community

WunderPhotos

Upload Photos

1,747,836 photos uploaded!

Nearby

Snow Depth

Not available.

Earthquake Activity

City Distance Mag. Time & Date
No recent earthquake activity has been reported nearby.
Minimum magnitude displayed is 2.5.

Coastal Water Temperatures

Place Temperature
No Stations Reporting

Nearby Weather Stations